Strathcarron, United Kingdom
Current Conditions -  °F | °C
As of 1:20 PM on Sunday 23 Nov 2014 (Local Time) from EGPL Reporting Station
Scattered Clouds Scattered Clouds  
Wind Chill:   Ceiling: Unl
Heat Index:   Visibility: 6mi
Dew Point:   Wind: 20mph
Humidity: 71%   Direction: 260°W
Pressure: 29.94"   Gusts: NA
Location:  57.41°N, 5.81°W
Report Text: EGPL 231320Z AUTO 26017KT 9999 FEW029/// SCT043/// 09/04 Q1014
Loading
Personal Weather Stations






























Interactive Weather Map New forecast layout! Learn more

10-Day Weather Forecast

Advertisements
Track Severe Weather on mobile